createdAt,value
2022-10-19T00:01:23.607Z,11.02
2022-10-19T00:04:26.139Z,11.02
2022-10-19T00:06:54.720Z,11.03
2022-10-19T00:09:22.726Z,11.01
2022-10-19T00:11:51.439Z,11.01
2022-10-19T00:14:23.651Z,10.99
2022-10-19T00:16:54.420Z,10.96
2022-10-19T00:19:26.359Z,10.93
2022-10-19T00:21:54.608Z,10.90
2022-10-19T00:24:22.420Z,10.90
2022-10-19T00:26:50.090Z,10.88
2022-10-19T00:29:17.906Z,10.90
2022-10-19T00:31:45.715Z,10.93
2022-10-19T00:34:13.440Z,10.91
2022-10-19T00:36:41.901Z,10.89
2022-10-19T00:39:14.385Z,10.87
2022-10-19T00:41:45.096Z,10.85
2022-10-19T00:44:12.670Z,10.83
2022-10-19T00:46:44.294Z,10.83
2022-10-19T00:49:43.686Z,10.81
2022-10-19T00:52:18.067Z,10.82
2022-10-19T00:54:48.883Z,10.81
2022-10-19T00:57:16.765Z,10.78
2022-10-19T00:59:45.982Z,10.76
2022-10-19T01:02:14.018Z,10.74
2022-10-19T01:04:47.655Z,10.72
2022-10-19T01:07:15.779Z,10.72
2022-10-19T01:09:43.389Z,10.70
2022-10-19T01:12:39.120Z,10.74
2022-10-19T01:15:26.942Z,10.77
2022-10-19T01:18:10.009Z,10.78
2022-10-19T01:20:55.723Z,10.78
2022-10-19T01:23:49.456Z,10.80
2022-10-19T01:26:47.541Z,10.79
2022-10-19T01:29:36.714Z,10.80
2022-10-19T01:32:47.038Z,10.75
2022-10-19T01:35:41.324Z,10.72
2022-10-19T01:38:30.618Z,10.70
2022-10-19T01:41:57.867Z,10.74
2022-10-19T01:44:43.877Z,10.71
2022-10-19T01:47:36.765Z,10.71
2022-10-19T01:50:14.718Z,10.70
2022-10-19T01:52:43.203Z,10.68
2022-10-19T01:55:15.996Z,10.67
2022-10-19T01:57:48.043Z,10.67
2022-10-19T02:00:17.070Z,10.69
2022-10-19T02:02:50.297Z,10.68
2022-10-19T02:05:21.865Z,10.68
2022-10-19T02:07:57.879Z,10.66
2022-10-19T02:10:27.779Z,10.62
2022-10-19T02:12:56.430Z,10.62
2022-10-19T02:15:27.388Z,10.63
2022-10-19T02:17:59.663Z,10.64
2022-10-19T02:20:28.548Z,10.65
2022-10-19T02:22:56.736Z,10.63
2022-10-19T02:25:25.404Z,10.62
2022-10-19T02:27:53.931Z,10.60
2022-10-19T02:30:22.359Z,10.61
2022-10-19T02:32:51.006Z,10.60
2022-10-19T02:35:18.979Z,10.64
2022-10-19T02:37:46.630Z,10.63
2022-10-19T02:40:14.675Z,10.64
2022-10-19T02:42:57.806Z,10.62
2022-10-19T02:45:31.915Z,10.61
2022-10-19T02:48:12.940Z,10.55
2022-10-19T02:50:52.106Z,10.56
2022-10-19T02:53:19.913Z,10.54
2022-10-19T02:55:49.518Z,10.51
2022-10-19T02:58:17.579Z,10.52
2022-10-19T03:00:45.381Z,10.54
2022-10-19T03:03:13.045Z,10.51
2022-10-19T03:05:40.694Z,10.51
2022-10-19T03:08:08.410Z,10.51
2022-10-19T03:10:36.155Z,10.52
2022-10-19T03:13:03.790Z,10.50
2022-10-19T03:15:31.436Z,10.54
2022-10-19T03:17:59.133Z,10.55
2022-10-19T03:20:26.821Z,10.49
2022-10-19T03:22:54.716Z,10.51
2022-10-19T03:25:22.345Z,10.51
2022-10-19T03:27:49.973Z,10.49
2022-10-19T03:30:17.760Z,10.47
2022-10-19T03:32:45.539Z,10.45
2022-10-19T03:35:13.223Z,10.48
2022-10-19T03:37:40.861Z,10.46
2022-10-19T03:40:09.486Z,10.46
2022-10-19T03:42:37.107Z,10.46
2022-10-19T03:45:05.772Z,10.44
2022-10-19T03:47:33.660Z,10.39
2022-10-19T03:50:01.593Z,10.43
2022-10-19T03:52:29.319Z,10.39
2022-10-19T03:54:56.988Z,10.44
2022-10-19T03:57:24.684Z,10.38
2022-10-19T03:59:52.347Z,10.39
2022-10-19T04:02:20.101Z,10.39
2022-10-19T04:04:47.765Z,10.38
2022-10-19T04:07:15.414Z,10.36
2022-10-19T04:09:43.096Z,10.37
2022-10-19T04:12:10.705Z,10.38
2022-10-19T04:14:56.305Z,10.39
2022-10-19T04:17:25.939Z,10.43
2022-10-19T04:19:53.631Z,10.44
2022-10-19T04:22:21.301Z,10.43
2022-10-19T04:24:48.953Z,10.39
2022-10-19T04:27:16.725Z,10.43
2022-10-19T04:29:44.380Z,10.41
2022-10-19T04:32:12.129Z,10.41
2022-10-19T04:34:40.242Z,10.41
2022-10-19T04:37:08.170Z,10.44
2022-10-19T04:39:39.495Z,10.42
2022-10-19T04:42:07.152Z,10.43
2022-10-19T04:44:34.784Z,10.42
2022-10-19T04:47:02.536Z,10.39
2022-10-19T04:49:30.183Z,10.40
2022-10-19T04:51:57.898Z,10.34
2022-10-19T04:54:25.662Z,10.35
2022-10-19T04:56:53.847Z,10.34
2022-10-19T04:59:21.555Z,10.33
2022-10-19T05:01:49.240Z,10.34
2022-10-19T05:04:16.932Z,10.29
2022-10-19T05:06:44.610Z,10.33
2022-10-19T05:09:12.654Z,10.31
2022-10-19T05:11:40.374Z,10.31
2022-10-19T05:14:08.615Z,10.29
2022-10-19T05:16:36.370Z,10.27
2022-10-19T05:19:04.149Z,10.22
2022-10-19T05:21:31.896Z,10.24
2022-10-19T05:23:59.619Z,10.28
2022-10-19T05:26:28.980Z,10.26
2022-10-19T05:29:04.743Z,10.30
2022-10-19T05:31:34.184Z,10.36
2022-10-19T05:34:03.987Z,10.37
2022-10-19T05:36:36.705Z,10.31
2022-10-19T05:39:15.040Z,10.39
2022-10-19T05:41:44.840Z,10.42
2022-10-19T05:44:22.241Z,10.42
2022-10-19T05:46:51.418Z,10.50
2022-10-19T05:49:21.909Z,10.48
2022-10-19T05:51:50.300Z,10.48
2022-10-19T05:54:18.967Z,10.52
2022-10-19T05:56:47.288Z,10.51
2022-10-19T05:59:19.196Z,10.49
2022-10-19T06:01:47.948Z,10.54
2022-10-19T06:06:45.772Z,10.56
2022-10-19T06:09:13.506Z,10.54
2022-10-19T06:11:42.526Z,10.54
2022-10-19T06:14:16.355Z,10.57
2022-10-19T06:16:46.066Z,10.57
2022-10-19T06:19:14.335Z,10.63
2022-10-19T06:21:46.008Z,10.58
2022-10-19T06:24:14.600Z,10.61
2022-10-19T06:26:42.572Z,10.61
2022-10-19T06:29:10.673Z,10.63
2022-10-19T06:31:38.559Z,10.62
2022-10-19T06:34:06.790Z,10.68
2022-10-19T06:36:34.748Z,10.72
2022-10-19T06:39:03.034Z,10.79
2022-10-19T06:41:32.448Z,10.76
2022-10-19T06:44:03.024Z,10.74
2022-10-19T06:46:32.229Z,10.72
2022-10-19T06:49:01.975Z,10.74
2022-10-19T06:51:33.901Z,10.77
2022-10-19T06:54:01.882Z,10.80
2022-10-19T06:56:29.648Z,10.88
2022-10-19T06:58:58.341Z,10.93
2022-10-19T07:01:26.135Z,10.92
2022-10-19T07:03:55.214Z,10.84
2022-10-19T07:06:23.949Z,10.73
2022-10-19T07:08:52.987Z,10.76
2022-10-19T07:11:22.495Z,10.75
2022-10-19T07:13:52.942Z,10.69
2022-10-19T07:16:21.880Z,10.74
2022-10-19T07:18:53.289Z,10.93
2022-10-19T07:21:23.183Z,10.98
2022-10-19T07:23:51.513Z,11.06
2022-10-19T07:26:27.728Z,11.20
2022-10-19T07:28:57.607Z,11.24
2022-10-19T07:31:28.007Z,11.25
2022-10-19T07:34:02.391Z,11.10
2022-10-19T07:36:33.634Z,11.15
2022-10-19T07:39:02.778Z,11.08
2022-10-19T07:41:30.438Z,11.12
2022-10-19T07:43:58.129Z,11.16
2022-10-19T07:46:29.232Z,11.20
2022-10-19T07:48:56.910Z,11.19
2022-10-19T07:51:25.270Z,11.22
2022-10-19T07:53:53.290Z,11.33
2022-10-19T07:56:23.973Z,11.16
2022-10-19T07:58:55.208Z,11.25
2022-10-19T08:01:26.883Z,11.35
2022-10-19T08:04:43.362Z,11.21
2022-10-19T08:06:45.248Z,11.32
2022-10-19T08:09:27.689Z,11.51
2022-10-19T08:12:00.851Z,11.49
2022-10-19T08:14:28.605Z,11.43
2022-10-19T08:16:56.426Z,11.50
2022-10-19T08:19:24.232Z,11.83
2022-10-19T08:21:52.998Z,11.75
2022-10-19T08:24:21.137Z,11.88
2022-10-19T08:26:51.255Z,11.81
2022-10-19T08:29:21.070Z,11.65
2022-10-19T08:31:50.159Z,11.72
2022-10-19T08:34:17.877Z,11.66
2022-10-19T08:36:47.037Z,11.56
2022-10-19T08:39:14.805Z,11.43
2022-10-19T08:42:16.109Z,11.53
2022-10-19T08:45:07.766Z,11.57
2022-10-19T08:47:53.766Z,11.79
2022-10-19T08:50:34.315Z,11.69
2022-10-19T08:53:06.721Z,11.69
2022-10-19T08:56:45.713Z,11.51
2022-10-19T08:59:36.498Z,11.62
2022-10-19T09:02:54.266Z,11.72
2022-10-19T09:05:32.494Z,11.79
2022-10-19T09:08:00.285Z,11.77
2022-10-19T09:10:37.381Z,11.73
2022-10-19T09:13:36.385Z,11.77
2022-10-19T09:16:19.415Z,11.88
2022-10-19T09:18:47.199Z,11.92
2022-10-19T09:21:30.957Z,11.81
2022-10-19T09:24:28.285Z,11.96
2022-10-19T09:27:00.462Z,11.86
2022-10-19T09:29:43.734Z,11.81
2022-10-19T09:32:20.850Z,12.05
2022-10-19T09:34:54.251Z,12.18
2022-10-19T09:37:26.347Z,12.18
2022-10-19T09:39:56.205Z,12.33
2022-10-19T09:42:30.240Z,12.51
2022-10-19T09:45:01.772Z,12.93
2022-10-19T09:47:39.682Z,13.05
2022-10-19T09:50:25.994Z,12.71
2022-10-19T09:53:02.614Z,12.65
2022-10-19T09:55:43.866Z,12.82
2022-10-19T09:58:14.388Z,12.56
2022-10-19T10:00:50.472Z,12.68
2022-10-19T10:03:40.765Z,12.90
2022-10-19T10:06:14.311Z,13.01
2022-10-19T10:08:57.819Z,13.16
2022-10-19T10:11:37.757Z,13.12
2022-10-19T10:14:30.301Z,13.18
2022-10-19T10:17:08.016Z,12.96
2022-10-19T10:19:36.110Z,12.41
2022-10-19T10:22:04.474Z,12.26
2022-10-19T10:24:34.246Z,12.31
2022-10-19T10:27:06.223Z,12.40
2022-10-19T10:29:38.949Z,12.26
2022-10-19T10:32:19.727Z,11.83
2022-10-19T10:35:15.230Z,11.59
2022-10-19T10:37:46.981Z,11.31
2022-10-19T10:40:27.867Z,11.35
2022-10-19T10:43:08.774Z,11.24
2022-10-19T10:45:45.198Z,11.09
2022-10-19T10:48:38.304Z,11.13
2022-10-19T10:51:32.449Z,11.15
2022-10-19T10:54:31.626Z,11.31
2022-10-19T10:57:12.988Z,11.20
2022-10-19T11:00:08.017Z,11.19
2022-10-19T11:03:06.482Z,11.24
2022-10-19T11:05:45.332Z,11.17
2022-10-19T11:08:22.538Z,11.22
2022-10-19T11:11:24.952Z,11.32
2022-10-19T11:14:00.255Z,11.40
2022-10-19T11:16:50.149Z,11.56
2022-10-19T11:19:45.452Z,11.78
2022-10-19T11:22:58.577Z,11.87
2022-10-19T11:26:04.124Z,11.77
2022-10-19T11:29:00.207Z,12.03
2022-10-19T11:31:55.238Z,12.52
2022-10-19T11:34:56.077Z,12.45
2022-10-19T11:38:17.587Z,12.31
2022-10-19T11:41:17.746Z,12.40
2022-10-19T11:44:32.739Z,12.67
2022-10-19T11:47:43.909Z,12.69
2022-10-19T11:50:36.192Z,13.02
2022-10-19T11:53:10.073Z,13.34
2022-10-19T11:55:58.325Z,13.64
2022-10-19T11:58:43.418Z,13.37
2022-10-19T12:01:52.191Z,12.95
2022-10-19T12:04:51.895Z,13.04
2022-10-19T12:08:14.089Z,13.40
2022-10-19T12:10:54.893Z,13.00
2022-10-19T12:13:36.438Z,12.94
2022-10-19T12:16:07.230Z,12.82
2022-10-19T12:18:45.589Z,13.01
2022-10-19T12:21:38.938Z,12.95
2022-10-19T12:24:13.848Z,12.84
2022-10-19T12:26:43.762Z,12.70
2022-10-19T12:29:22.631Z,12.66
2022-10-19T12:31:52.458Z,12.66
2022-10-19T12:34:50.766Z,12.83
2022-10-19T12:37:47.388Z,12.90
2022-10-19T12:40:46.246Z,12.95
2022-10-19T12:43:31.483Z,13.04
2022-10-19T12:46:49.603Z,13.19
2022-10-19T12:49:26.289Z,13.27
2022-10-19T12:51:56.629Z,13.41
2022-10-19T12:54:28.184Z,13.51
2022-10-19T12:56:58.549Z,13.35
2022-10-19T12:59:31.417Z,13.21
2022-10-19T13:02:01.093Z,13.23
2022-10-19T13:04:36.141Z,13.39
2022-10-19T13:07:10.820Z,13.28
2022-10-19T13:09:42.625Z,13.29
2022-10-19T13:12:16.232Z,13.64
2022-10-19T13:15:05.016Z,14.10
2022-10-19T13:17:36.795Z,14.38
2022-10-19T13:20:28.525Z,14.43
2022-10-19T13:22:59.340Z,14.48
2022-10-19T13:25:35.111Z,14.03
2022-10-19T13:28:05.836Z,13.35
2022-10-19T13:30:37.168Z,13.08
2022-10-19T13:33:29.852Z,13.02
2022-10-19T13:36:00.501Z,12.96
2022-10-19T13:39:07.987Z,12.99
2022-10-19T13:41:38.784Z,13.54
2022-10-19T13:44:12.007Z,13.74
2022-10-19T13:47:29.554Z,13.90
2022-10-19T13:50:21.898Z,14.04
2022-10-19T13:53:15.598Z,13.32
2022-10-19T13:56:01.767Z,13.22
2022-10-19T13:59:19.463Z,13.41
2022-10-19T14:02:41.218Z,13.41
2022-10-19T14:08:31.061Z,13.29
2022-10-19T14:11:19.207Z,13.01
2022-10-19T14:14:18.166Z,13.00
2022-10-19T14:16:54.446Z,12.95
2022-10-19T14:19:41.290Z,12.68
2022-10-19T14:22:34.515Z,12.83
2022-10-19T14:25:20.815Z,12.96
2022-10-19T14:27:56.711Z,12.88
2022-10-19T14:30:31.358Z,12.84
2022-10-19T14:33:02.526Z,12.82
2022-10-19T14:35:35.566Z,12.85
2022-10-19T14:38:16.483Z,12.82
2022-10-19T14:40:44.178Z,12.65
2022-10-19T14:43:27.633Z,12.68
2022-10-19T14:46:13.680Z,12.72
2022-10-19T14:48:50.505Z,12.57
2022-10-19T14:51:35.567Z,12.43
2022-10-19T14:54:26.372Z,12.29
2022-10-19T14:57:24.711Z,12.17
2022-10-19T14:59:58.874Z,12.03
2022-10-19T15:02:44.267Z,12.01
2022-10-19T15:05:26.469Z,12.01
2022-10-19T15:07:55.128Z,11.97
2022-10-19T15:10:39.226Z,11.87
2022-10-19T15:13:07.673Z,11.82
2022-10-19T15:15:36.253Z,11.80
2022-10-19T15:18:06.427Z,11.78
2022-10-19T15:20:49.351Z,11.71
2022-10-19T15:23:42.741Z,11.66
2022-10-19T15:26:26.926Z,11.68
2022-10-19T15:29:07.916Z,11.65
2022-10-19T15:31:35.972Z,11.59
2022-10-19T15:34:05.203Z,11.48
2022-10-19T15:36:33.501Z,11.35
2022-10-19T15:39:24.470Z,11.30
2022-10-19T15:41:53.111Z,11.14
2022-10-19T15:44:43.401Z,11.04
2022-10-19T15:47:14.431Z,10.98
2022-10-19T15:49:42.102Z,10.92
2022-10-19T15:52:22.173Z,10.80
2022-10-19T15:54:56.528Z,10.72
2022-10-19T15:57:36.918Z,10.68
2022-10-19T16:00:17.748Z,10.63
2022-10-19T16:02:45.597Z,10.55
2022-10-19T16:05:13.257Z,10.52
2022-10-19T16:07:41.831Z,10.43
2022-10-19T16:10:18.727Z,10.39
2022-10-19T16:12:46.504Z,10.34
2022-10-19T16:15:21.993Z,10.26
2022-10-19T16:17:55.559Z,10.22
2022-10-19T16:20:25.512Z,10.19
2022-10-19T16:22:54.059Z,10.15
2022-10-19T16:25:21.837Z,10.14
2022-10-19T16:27:49.676Z,10.08
2022-10-19T16:30:17.693Z,10.03
2022-10-19T16:32:48.567Z,10.01
2022-10-19T16:35:17.050Z,9.97
2022-10-19T16:37:44.836Z,9.93
2022-10-19T16:40:12.601Z,9.87
2022-10-19T16:42:40.443Z,9.84
2022-10-19T16:45:10.298Z,9.83
2022-10-19T16:47:37.960Z,9.81
2022-10-19T16:50:06.675Z,9.75
2022-10-19T16:52:34.907Z,9.67
2022-10-19T16:55:03.218Z,9.60
2022-10-19T16:57:30.877Z,9.55
2022-10-19T16:59:58.562Z,9.54
2022-10-19T17:02:26.473Z,9.46
2022-10-19T17:04:54.226Z,9.45
2022-10-19T17:07:22.253Z,9.36
2022-10-19T17:09:54.472Z,9.33
2022-10-19T17:12:22.833Z,9.29
2022-10-19T17:14:51.553Z,9.22
2022-10-19T17:17:19.326Z,9.20
2022-10-19T17:19:48.211Z,9.13
2022-10-19T17:22:15.927Z,9.10
2022-10-19T17:24:46.199Z,9.08
2022-10-19T17:27:14.097Z,9.02
2022-10-19T17:29:42.380Z,8.97
2022-10-19T17:32:10.061Z,8.94
2022-10-19T17:34:37.868Z,8.90
2022-10-19T17:37:07.039Z,8.88
2022-10-19T17:39:34.748Z,8.87
2022-10-19T17:42:04.888Z,8.84
2022-10-19T17:44:32.603Z,8.83
2022-10-19T17:47:01.234Z,8.85
2022-10-19T17:49:29.860Z,8.83
2022-10-19T17:51:58.085Z,8.82
2022-10-19T17:54:25.913Z,8.78
2022-10-19T17:56:54.457Z,8.74
2022-10-19T17:59:34.987Z,8.73
2022-10-19T18:02:04.750Z,8.62
2022-10-19T18:04:32.689Z,8.65
2022-10-19T18:07:00.514Z,8.54
2022-10-19T18:09:28.322Z,8.56
2022-10-19T18:11:56.023Z,8.48
2022-10-19T18:14:23.676Z,8.41
2022-10-19T18:16:52.006Z,8.38
2022-10-19T18:19:19.796Z,8.34
2022-10-19T18:21:49.116Z,8.28
2022-10-19T18:24:20.163Z,8.24
2022-10-19T18:26:50.535Z,8.17
2022-10-19T18:29:22.943Z,8.16
2022-10-19T18:31:52.424Z,8.12
2022-10-19T18:34:24.669Z,8.13
2022-10-19T18:36:53.588Z,8.08
2022-10-19T18:39:23.142Z,8.05
2022-10-19T18:41:54.495Z,8.01
2022-10-19T18:44:26.517Z,7.98
2022-10-19T18:46:56.830Z,7.97
2022-10-19T18:49:24.943Z,7.93
2022-10-19T18:51:55.429Z,7.86
2022-10-19T18:54:27.752Z,7.83
2022-10-19T18:56:55.813Z,7.78
2022-10-19T18:59:23.786Z,7.71
2022-10-19T19:01:53.099Z,7.71
2022-10-19T19:04:21.180Z,7.71
2022-10-19T19:06:48.999Z,7.66
2022-10-19T19:09:18.938Z,7.60
2022-10-19T19:11:46.854Z,7.56
2022-10-19T19:14:18.478Z,7.51
2022-10-19T19:16:47.294Z,7.48
2022-10-19T19:19:17.934Z,7.42
2022-10-19T19:21:46.564Z,7.30
2022-10-19T19:24:18.425Z,7.24
2022-10-19T19:26:52.402Z,7.16
2022-10-19T19:29:21.627Z,7.10
2022-10-19T19:31:50.738Z,7.09
2022-10-19T19:34:18.457Z,7.02
2022-10-19T19:36:49.349Z,6.98
2022-10-19T19:39:20.594Z,6.97
2022-10-19T19:41:49.673Z,6.93
2022-10-19T19:44:17.911Z,6.86
2022-10-19T19:46:47.742Z,6.82
2022-10-19T19:49:16.057Z,6.80
2022-10-19T19:51:43.800Z,6.81
2022-10-19T19:54:11.762Z,6.74
2022-10-19T19:56:42.034Z,6.72
2022-10-19T19:59:12.438Z,6.72
2022-10-19T20:01:40.742Z,6.73
2022-10-19T20:04:09.514Z,6.71
2022-10-19T20:06:40.716Z,6.67
2022-10-19T20:09:10.579Z,6.67
2022-10-19T20:11:42.445Z,6.64
2022-10-19T20:14:12.591Z,6.60
2022-10-19T20:16:40.726Z,6.59
2022-10-19T20:19:14.111Z,6.55
2022-10-19T20:21:42.212Z,6.52
2022-10-19T20:24:10.727Z,6.52
2022-10-19T20:26:38.416Z,6.49
2022-10-19T20:29:06.695Z,6.47
2022-10-19T20:31:39.425Z,6.47
2022-10-19T20:34:13.695Z,6.45
2022-10-19T20:36:42.043Z,6.40
2022-10-19T20:39:10.321Z,6.44
2022-10-19T20:41:38.225Z,6.44
2022-10-19T20:44:05.902Z,6.42
2022-10-19T20:46:34.316Z,6.31
2022-10-19T20:49:02.088Z,6.19
2022-10-19T20:51:35.021Z,6.19
2022-10-19T20:54:06.600Z,6.19
2022-10-19T20:56:37.601Z,6.17
2022-10-19T20:59:16.362Z,6.15
2022-10-19T21:01:46.296Z,6.14
2022-10-19T21:04:15.432Z,6.10
2022-10-19T21:06:46.739Z,6.06
2022-10-19T21:09:19.157Z,5.97
2022-10-19T21:11:50.198Z,5.90
2022-10-19T21:14:25.380Z,5.84
2022-10-19T21:16:58.641Z,5.80
2022-10-19T21:19:29.101Z,5.76
2022-10-19T21:22:03.528Z,5.71
2022-10-19T21:24:35.993Z,5.71
2022-10-19T21:27:07.634Z,5.71
2022-10-19T21:29:37.384Z,5.72
2022-10-19T21:32:05.266Z,5.83
2022-10-19T21:34:33.646Z,5.80
2022-10-19T21:37:01.425Z,5.75
2022-10-19T21:39:29.193Z,5.67
2022-10-19T21:41:57.907Z,5.53
2022-10-19T21:44:25.614Z,5.50
2022-10-19T21:46:53.269Z,5.44
2022-10-19T21:49:21.014Z,5.47
2022-10-19T21:51:54.315Z,5.38
2022-10-19T21:54:25.133Z,5.35
2022-10-19T21:56:54.977Z,5.33
2022-10-19T21:59:22.733Z,5.31
2022-10-19T22:01:50.519Z,5.30
2022-10-19T22:04:18.606Z,5.27
2022-10-19T22:06:46.572Z,5.31
2022-10-19T22:09:18.983Z,5.30
2022-10-19T22:11:47.581Z,5.20
2022-10-19T22:14:16.729Z,5.17
2022-10-19T22:16:44.841Z,5.16
2022-10-19T22:19:13.040Z,5.18
2022-10-19T22:21:41.057Z,5.21
2022-10-19T22:24:14.886Z,5.20
2022-10-19T22:26:46.956Z,5.09
2022-10-19T22:29:14.907Z,5.07
2022-10-19T22:31:43.367Z,5.07
2022-10-19T22:34:16.587Z,5.05
2022-10-19T22:36:45.166Z,5.03
2022-10-19T22:39:14.077Z,5.02
2022-10-19T22:41:41.832Z,4.96
2022-10-19T22:44:09.495Z,4.88
2022-10-19T22:46:37.212Z,4.87
2022-10-19T22:49:05.029Z,4.85
2022-10-19T22:51:32.808Z,4.96
2022-10-19T22:54:00.587Z,5.09
2022-10-19T22:56:28.441Z,5.27
2022-10-19T22:59:04.936Z,5.05
2022-10-19T23:01:33.486Z,4.88
2022-10-19T23:04:01.288Z,4.82
2022-10-19T23:06:29.831Z,4.76
2022-10-19T23:08:57.627Z,4.63
2022-10-19T23:11:25.392Z,4.57
2022-10-19T23:13:53.221Z,4.58
2022-10-19T23:16:21.090Z,4.55
2022-10-19T23:18:49.133Z,4.56
2022-10-19T23:21:17.037Z,4.40
2022-10-19T23:23:44.986Z,4.09
2022-10-19T23:26:17.374Z,3.86
2022-10-19T23:28:47.990Z,3.82
2022-10-19T23:31:25.069Z,4.03
2022-10-19T23:33:53.931Z,4.14
2022-10-19T23:36:26.677Z,4.19
2022-10-19T23:38:56.928Z,4.17
2022-10-19T23:41:25.205Z,4.17
2022-10-19T23:43:52.927Z,4.15
2022-10-19T23:46:20.808Z,4.13
2022-10-19T23:48:48.466Z,4.12
2022-10-19T23:51:19.881Z,4.09
2022-10-19T23:53:49.819Z,4.06
2022-10-19T23:56:21.878Z,4.03
2022-10-19T23:58:50.794Z,4.00
